createdAt,value
2023-11-15T00:02:17.200Z,8.10
2023-11-15T00:04:43.905Z,8.00
2023-11-15T00:07:10.537Z,8.00
2023-11-15T00:09:37.146Z,8.00
2023-11-15T00:12:04.516Z,8.00
2023-11-15T00:14:31.180Z,8.10
2023-11-15T00:16:57.840Z,8.10
2023-11-15T00:19:24.928Z,8.10
2023-11-15T00:21:51.584Z,8.10
2023-11-15T00:24:19.491Z,8.00
2023-11-15T00:26:46.202Z,8.10
2023-11-15T00:29:13.176Z,8.10
2023-11-15T00:31:41.198Z,8.00
2023-11-15T00:34:07.864Z,8.10
2023-11-15T00:36:37.700Z,8.10
2023-11-15T00:39:09.746Z,8.10
2023-11-15T00:41:36.862Z,8.10
2023-11-15T00:44:04.508Z,8.10
2023-11-15T00:46:33.439Z,8.10
2023-11-15T00:49:00.030Z,8.10
2023-11-15T00:51:26.608Z,8.10
2023-11-15T00:53:53.394Z,8.20
2023-11-15T00:56:19.974Z,8.10
2023-11-15T00:58:47.398Z,8.10
2023-11-15T01:01:14.162Z,8.00
2023-11-15T01:03:46.388Z,8.00
2023-11-15T01:06:14.934Z,8.00
2023-11-15T01:08:41.899Z,8.00
2023-11-15T01:11:08.622Z,8.00
2023-11-15T01:13:35.520Z,8.00
2023-11-15T01:16:02.328Z,8.00
2023-11-15T01:18:30.563Z,8.20
2023-11-15T01:20:57.242Z,8.00
2023-11-15T01:23:23.939Z,7.90
2023-11-15T01:25:50.658Z,7.80
2023-11-15T01:28:17.374Z,7.80
2023-11-15T01:30:43.995Z,7.80
2023-11-15T01:33:10.970Z,7.80
2023-11-15T01:35:38.336Z,7.70
2023-11-15T01:38:04.964Z,7.70
2023-11-15T01:40:35.092Z,7.70
2023-11-15T01:43:03.621Z,7.70
2023-11-15T01:45:30.315Z,7.70
2023-11-15T01:47:57.277Z,7.70
2023-11-15T01:50:24.319Z,7.70
2023-11-15T01:52:51.538Z,7.80
2023-11-15T01:55:20.901Z,7.70
2023-11-15T01:57:48.737Z,7.70
2023-11-15T02:00:16.305Z,7.70
2023-11-15T02:02:44.004Z,7.70
2023-11-15T02:05:11.082Z,7.70
2023-11-15T02:07:43.003Z,7.70
2023-11-15T02:10:10.607Z,7.80
2023-11-15T02:12:38.687Z,7.80
2023-11-15T02:15:05.941Z,7.70
2023-11-15T02:17:34.081Z,7.70
2023-11-15T02:20:00.843Z,7.80
2023-11-15T02:22:28.141Z,7.80
2023-11-15T02:24:54.800Z,7.70
2023-11-15T02:27:21.465Z,7.80
2023-11-15T02:29:48.069Z,7.80
2023-11-15T02:32:14.649Z,7.70
2023-11-15T02:34:41.358Z,7.70
2023-11-15T02:37:07.973Z,7.60
2023-11-15T02:39:34.576Z,7.70
2023-11-15T02:42:01.219Z,7.70
2023-11-15T02:44:27.819Z,7.80
2023-11-15T02:46:54.427Z,7.70
2023-11-15T02:49:21.787Z,7.70
2023-11-15T02:51:50.220Z,7.70
2023-11-15T02:54:16.912Z,7.70
2023-11-15T02:56:43.524Z,7.70
2023-11-15T02:59:10.131Z,7.60
2023-11-15T03:01:36.735Z,7.70
2023-11-15T03:04:03.590Z,7.70
2023-11-15T03:06:30.236Z,7.70
2023-11-15T03:08:56.883Z,7.70
2023-11-15T03:11:23.575Z,7.80
2023-11-15T03:13:50.689Z,7.70
2023-11-15T03:16:17.487Z,7.70
2023-11-15T03:18:44.210Z,7.80
2023-11-15T03:21:10.887Z,7.70
2023-11-15T03:23:39.393Z,7.70
2023-11-15T03:26:06.154Z,7.80
2023-11-15T03:28:32.726Z,7.70
2023-11-15T03:30:59.318Z,7.70
2023-11-15T03:33:25.984Z,7.80
2023-11-15T03:35:52.618Z,7.80
2023-11-15T03:38:19.339Z,7.90
2023-11-15T03:40:45.904Z,7.80
2023-11-15T03:43:12.813Z,7.90
2023-11-15T03:45:39.451Z,8.00
2023-11-15T03:48:06.390Z,7.90
2023-11-15T03:50:33.032Z,7.90
2023-11-15T03:53:01.166Z,7.90
2023-11-15T03:55:27.793Z,7.90
2023-11-15T03:57:54.386Z,7.90
2023-11-15T04:00:21.127Z,7.90
2023-11-15T04:02:47.987Z,7.90
2023-11-15T04:05:17.910Z,7.90
2023-11-15T04:07:45.285Z,7.90
2023-11-15T04:10:12.200Z,7.80
2023-11-15T04:12:38.916Z,7.70
2023-11-15T04:15:06.215Z,7.70
2023-11-15T04:17:32.883Z,7.80
2023-11-15T04:19:59.546Z,7.70
2023-11-15T04:22:26.158Z,7.70
2023-11-15T04:24:53.664Z,7.70
2023-11-15T04:27:20.269Z,7.60
2023-11-15T04:29:47.244Z,7.70
2023-11-15T04:32:14.542Z,7.70
2023-11-15T04:34:41.284Z,7.80
2023-11-15T04:37:07.915Z,7.80
2023-11-15T04:39:34.790Z,7.80
2023-11-15T04:42:02.947Z,7.80
2023-11-15T04:44:30.856Z,7.80
2023-11-15T04:46:57.541Z,7.70
2023-11-15T04:49:24.117Z,7.70
2023-11-15T04:51:50.728Z,7.70
2023-11-15T04:54:17.401Z,7.70
2023-11-15T04:56:44.069Z,7.70
2023-11-15T04:59:10.788Z,7.70
2023-11-15T05:01:37.513Z,7.70
2023-11-15T05:04:04.670Z,7.80
2023-11-15T05:06:31.386Z,7.60
2023-11-15T05:09:00.473Z,7.60
2023-11-15T05:11:27.140Z,7.70
2023-11-15T05:13:53.729Z,7.60
2023-11-15T05:16:20.377Z,7.60
2023-11-15T05:18:47.254Z,7.70
2023-11-15T05:21:13.886Z,7.60
2023-11-15T05:23:41.001Z,7.60
2023-11-15T05:26:10.251Z,7.70
2023-11-15T05:28:36.887Z,7.70
2023-11-15T05:31:04.309Z,7.70
2023-11-15T05:33:31.798Z,7.70
2023-11-15T05:35:58.500Z,7.60
2023-11-15T05:38:25.191Z,7.60
2023-11-15T05:40:52.624Z,7.50
2023-11-15T05:43:19.378Z,7.60
2023-11-15T05:45:45.987Z,7.60
2023-11-15T05:48:12.736Z,7.60
2023-11-15T05:50:39.375Z,7.70
2023-11-15T05:53:06.850Z,7.60
2023-11-15T05:55:33.481Z,7.60
2023-11-15T05:58:00.126Z,7.60
2023-11-15T06:00:26.836Z,7.60
2023-11-15T06:02:53.538Z,7.60
2023-11-15T06:05:20.920Z,7.60
2023-11-15T06:07:47.660Z,7.60
2023-11-15T06:10:15.380Z,7.50
2023-11-15T06:12:41.953Z,7.50
2023-11-15T06:15:10.137Z,7.50
2023-11-15T06:17:37.779Z,7.50
2023-11-15T06:20:07.339Z,7.50
2023-11-15T06:22:34.458Z,7.50
2023-11-15T06:25:01.185Z,7.50
2023-11-15T06:27:28.616Z,7.50
2023-11-15T06:29:56.576Z,7.40
2023-11-15T06:32:25.076Z,7.40
2023-11-15T06:34:51.730Z,7.40
2023-11-15T06:37:19.089Z,7.30
2023-11-15T06:39:45.756Z,7.20
2023-11-15T06:42:13.782Z,7.20
2023-11-15T06:44:41.348Z,7.20
2023-11-15T06:47:09.957Z,7.30
2023-11-15T06:49:40.116Z,7.30
2023-11-15T06:52:07.153Z,7.30
2023-11-15T06:54:34.224Z,7.40
2023-11-15T06:57:00.937Z,7.40
2023-11-15T06:59:27.797Z,7.40
2023-11-15T07:01:54.840Z,7.40
2023-11-15T07:04:23.128Z,7.40
2023-11-15T07:06:50.273Z,7.50
2023-11-15T07:09:17.184Z,7.50
2023-11-15T07:11:48.081Z,7.50
2023-11-15T07:14:15.894Z,7.50
2023-11-15T07:16:53.547Z,7.60
2023-11-15T07:19:20.188Z,7.50
2023-11-15T07:21:46.824Z,7.50
2023-11-15T07:24:14.339Z,7.50
2023-11-15T07:26:40.991Z,7.40
2023-11-15T07:29:11.030Z,7.50
2023-11-15T07:31:37.682Z,7.50
2023-11-15T07:34:06.810Z,7.50
2023-11-15T07:36:34.567Z,7.60
2023-11-15T07:39:02.540Z,7.60
2023-11-15T07:41:29.995Z,7.60
2023-11-15T07:43:56.649Z,7.70
2023-11-15T07:46:25.121Z,7.70
2023-11-15T07:48:52.485Z,7.60
2023-11-15T07:51:19.656Z,7.50
2023-11-15T07:53:50.751Z,7.60
2023-11-15T07:56:20.704Z,7.60
2023-11-15T07:58:47.975Z,7.60
2023-11-15T08:01:14.896Z,7.60
2023-11-15T08:03:45.428Z,7.60
2023-11-15T08:06:12.212Z,7.60
2023-11-15T08:08:38.842Z,7.70
2023-11-15T08:11:06.034Z,7.70
2023-11-15T08:13:32.621Z,7.80
2023-11-15T08:15:59.219Z,7.80
2023-11-15T08:18:27.083Z,7.80
2023-11-15T08:20:54.382Z,7.80
2023-11-15T08:23:21.064Z,7.80
2023-11-15T08:25:48.624Z,7.80
2023-11-15T08:28:15.244Z,7.90
2023-11-15T08:30:41.949Z,7.90
2023-11-15T08:33:08.715Z,7.90
2023-11-15T08:35:44.855Z,8.00
2023-11-15T08:38:11.768Z,8.10
2023-11-15T08:40:38.824Z,8.10
2023-11-15T08:43:05.432Z,8.10
2023-11-15T08:45:32.066Z,8.20
2023-11-15T08:47:59.626Z,8.10
2023-11-15T08:50:26.682Z,8.20
2023-11-15T08:52:54.155Z,8.20
2023-11-15T08:55:20.827Z,8.30
2023-11-15T08:57:47.547Z,8.30
2023-11-15T09:00:17.536Z,8.40
2023-11-15T09:02:48.585Z,8.50
2023-11-15T09:05:16.047Z,8.60
2023-11-15T09:07:43.032Z,8.60
2023-11-15T09:10:10.198Z,8.60
2023-11-15T09:12:37.727Z,8.70
2023-11-15T09:15:12.639Z,8.80
2023-11-15T09:17:47.002Z,8.90
2023-11-15T09:20:20.438Z,8.80
2023-11-15T09:22:50.928Z,8.90
2023-11-15T09:25:31.694Z,8.90
2023-11-15T09:28:01.628Z,8.90
2023-11-15T09:30:29.792Z,8.90
2023-11-15T09:32:56.559Z,8.80
2023-11-15T09:35:30.334Z,8.80
2023-11-15T09:38:00.058Z,8.70
2023-11-15T09:40:28.174Z,8.70
2023-11-15T09:42:56.231Z,8.60
2023-11-15T09:45:24.697Z,8.60
2023-11-15T09:47:52.925Z,8.60
2023-11-15T09:50:28.084Z,8.60
2023-11-15T09:52:59.648Z,8.60
2023-11-15T09:55:27.699Z,8.60
2023-11-15T09:57:55.232Z,8.70
2023-11-15T10:00:23.792Z,8.70
2023-11-15T10:02:54.252Z,8.80
2023-11-15T10:05:28.033Z,8.80
2023-11-15T10:08:16.413Z,8.90
2023-11-15T10:10:45.812Z,8.80
2023-11-15T10:13:15.586Z,8.90
2023-11-15T10:15:46.791Z,8.90
2023-11-15T10:18:15.733Z,9.00
2023-11-15T10:20:44.367Z,9.10
2023-11-15T10:23:13.324Z,9.10
2023-11-15T10:25:53.547Z,9.10
2023-11-15T10:28:22.444Z,9.20
2023-11-15T10:31:13.977Z,9.10
2023-11-15T10:33:45.029Z,9.10
2023-11-15T10:36:18.710Z,9.20
2023-11-15T10:38:46.207Z,9.30
2023-11-15T10:41:18.460Z,9.20
2023-11-15T10:43:53.085Z,9.20
2023-11-15T10:46:28.022Z,9.10
2023-11-15T10:48:57.838Z,8.90
2023-11-15T10:51:30.684Z,8.90
2023-11-15T10:53:57.954Z,9.00
2023-11-15T10:56:25.835Z,9.00
2023-11-15T10:58:53.816Z,8.90
2023-11-15T11:01:21.130Z,8.90
2023-11-15T11:03:53.024Z,9.10
2023-11-15T11:06:30.905Z,9.30
2023-11-15T11:09:11.593Z,9.30
2023-11-15T11:12:01.194Z,9.30
2023-11-15T11:14:28.775Z,9.20
2023-11-15T11:16:57.827Z,9.20
2023-11-15T11:19:26.936Z,9.20
2023-11-15T11:22:02.315Z,9.00
2023-11-15T11:24:33.360Z,9.10
2023-11-15T11:27:15.496Z,9.30
2023-11-15T11:30:01.605Z,9.40
2023-11-15T11:32:36.380Z,9.50
2023-11-15T11:35:06.260Z,9.40
2023-11-15T11:37:48.017Z,9.40
2023-11-15T11:40:18.337Z,9.50
2023-11-15T11:42:49.192Z,9.40
2023-11-15T11:45:17.068Z,9.40
2023-11-15T11:47:47.509Z,9.40
2023-11-15T11:50:23.865Z,9.40
2023-11-15T11:52:58.444Z,9.50
2023-11-15T11:55:25.591Z,9.60
2023-11-15T11:57:52.850Z,9.60
2023-11-15T12:00:22.658Z,9.70
2023-11-15T12:02:52.731Z,9.80
2023-11-15T12:05:25.752Z,9.90
2023-11-15T12:07:57.741Z,9.90
2023-11-15T12:10:26.490Z,9.80
2023-11-15T12:13:02.381Z,9.80
2023-11-15T12:15:29.264Z,10.00
2023-11-15T12:17:58.232Z,9.90
2023-11-15T12:20:44.029Z,10.00
2023-11-15T12:23:13.511Z,10.10
2023-11-15T12:25:48.731Z,10.00
2023-11-15T12:28:16.519Z,10.00
2023-11-15T12:30:44.744Z,10.00
2023-11-15T12:33:12.817Z,10.00
2023-11-15T12:35:43.198Z,10.00
2023-11-15T12:38:13.294Z,9.90
2023-11-15T12:40:42.007Z,9.80
2023-11-15T12:43:28.860Z,9.90
2023-11-15T12:46:02.419Z,10.00
2023-11-15T12:48:29.322Z,10.10
2023-11-15T12:51:03.452Z,10.20
2023-11-15T12:53:31.875Z,10.30
2023-11-15T12:55:59.864Z,10.40
2023-11-15T12:58:29.980Z,10.50
2023-11-15T13:00:58.470Z,10.60
2023-11-15T13:03:27.422Z,10.60
2023-11-15T13:05:56.615Z,10.50
2023-11-15T13:08:23.857Z,10.40
2023-11-15T13:10:50.502Z,10.40
2023-11-15T13:13:17.143Z,10.40
2023-11-15T13:15:44.029Z,10.70
2023-11-15T13:18:12.468Z,10.80
2023-11-15T13:20:39.482Z,10.80
2023-11-15T13:23:06.183Z,10.80
2023-11-15T13:25:34.757Z,10.90
2023-11-15T13:28:02.263Z,11.10
2023-11-15T13:30:29.066Z,11.20
2023-11-15T13:32:57.037Z,11.20
2023-11-15T13:35:23.749Z,11.30
2023-11-15T13:37:50.524Z,11.40
2023-11-15T13:40:19.258Z,11.50
2023-11-15T13:42:47.831Z,11.50
2023-11-15T13:45:17.753Z,11.60
2023-11-15T13:47:47.090Z,11.60
2023-11-15T13:50:14.403Z,11.60
2023-11-15T13:52:41.212Z,11.60
2023-11-15T13:55:09.610Z,11.70
2023-11-15T13:57:37.365Z,11.80
2023-11-15T14:00:21.770Z,11.90
2023-11-15T14:02:50.313Z,12.00
2023-11-15T14:05:19.889Z,11.90
2023-11-15T14:07:46.910Z,11.90
2023-11-15T14:10:20.496Z,12.00
2023-11-15T14:12:47.514Z,12.10
2023-11-15T14:15:16.772Z,12.10
2023-11-15T14:17:43.657Z,12.00
2023-11-15T14:20:12.090Z,12.00
2023-11-15T14:22:44.387Z,12.10
2023-11-15T14:25:21.212Z,12.00
2023-11-15T14:27:54.256Z,12.10
2023-11-15T14:30:24.492Z,12.10
2023-11-15T14:32:52.058Z,12.10
2023-11-15T14:35:20.183Z,12.10
2023-11-15T14:37:52.659Z,12.10
2023-11-15T14:40:25.632Z,12.10
2023-11-15T14:42:56.914Z,12.10
2023-11-15T14:45:26.508Z,12.10
2023-11-15T14:47:53.615Z,12.10
2023-11-15T14:50:23.833Z,12.00
2023-11-15T14:52:54.034Z,12.00
2023-11-15T14:55:27.824Z,12.00
2023-11-15T14:57:55.024Z,12.00
2023-11-15T15:00:21.829Z,11.90
2023-11-15T15:02:51.779Z,11.80
2023-11-15T15:05:19.225Z,11.80
2023-11-15T15:07:45.815Z,11.70
2023-11-15T15:10:13.396Z,11.70
2023-11-15T15:12:40.811Z,11.60
2023-11-15T15:15:13.212Z,11.60
2023-11-15T15:17:47.010Z,11.60
2023-11-15T15:20:20.149Z,11.50
2023-11-15T15:22:47.824Z,11.50
2023-11-15T15:25:14.793Z,11.50
2023-11-15T15:27:45.226Z,11.40
2023-11-15T15:30:17.630Z,11.40
2023-11-15T15:32:47.891Z,11.50
2023-11-15T15:35:15.219Z,11.40
2023-11-15T15:37:45.913Z,11.40
2023-11-15T15:40:17.749Z,11.40
2023-11-15T15:42:45.396Z,11.40
2023-11-15T15:45:14.734Z,11.40
2023-11-15T15:47:46.845Z,11.40
2023-11-15T15:50:14.391Z,11.40
2023-11-15T15:52:41.984Z,11.40
2023-11-15T15:55:13.253Z,11.30
2023-11-15T15:57:40.149Z,11.20
2023-11-15T16:00:07.975Z,11.10
2023-11-15T16:02:37.617Z,11.10
2023-11-15T16:05:05.597Z,11.10
2023-11-15T16:07:32.312Z,11.00
2023-11-15T16:10:01.908Z,10.70
2023-11-15T16:12:29.361Z,10.70
2023-11-15T16:14:59.174Z,10.70
2023-11-15T16:17:26.959Z,10.70
2023-11-15T16:19:57.560Z,10.70
2023-11-15T16:22:25.599Z,10.70
2023-11-15T16:24:52.397Z,10.70
2023-11-15T16:27:22.685Z,10.70
2023-11-15T16:29:54.824Z,10.70
2023-11-15T16:32:22.601Z,10.60
2023-11-15T16:34:49.369Z,10.60
2023-11-15T16:37:17.577Z,10.60
2023-11-15T16:39:45.108Z,10.60
2023-11-15T16:42:11.864Z,10.60
2023-11-15T16:44:38.953Z,10.60
2023-11-15T16:47:06.811Z,10.70
2023-11-15T16:49:33.466Z,10.70
2023-11-15T16:52:02.303Z,10.60
2023-11-15T16:54:31.070Z,10.60
2023-11-15T16:56:58.816Z,10.60
2023-11-15T16:59:25.955Z,10.50
2023-11-15T17:01:52.834Z,10.60
2023-11-15T17:04:19.600Z,10.50
2023-11-15T17:06:46.225Z,10.50
2023-11-15T17:09:13.968Z,10.60
2023-11-15T17:11:40.660Z,10.50
2023-11-15T17:14:07.544Z,10.60
2023-11-15T17:16:34.490Z,10.50
2023-11-15T17:19:02.973Z,10.50
2023-11-15T17:21:29.594Z,10.50
2023-11-15T17:23:56.287Z,10.50
2023-11-15T17:26:22.975Z,10.50
2023-11-15T17:28:49.635Z,10.50
2023-11-15T17:31:23.620Z,10.50
2023-11-15T17:33:50.538Z,10.30
2023-11-15T17:36:17.474Z,10.30
2023-11-15T17:38:44.484Z,10.30
2023-11-15T17:41:13.316Z,10.30
2023-11-15T17:43:39.887Z,10.20
2023-11-15T17:46:08.759Z,10.20
2023-11-15T17:48:37.135Z,10.20
2023-11-15T17:51:04.811Z,10.30
2023-11-15T17:53:35.394Z,10.30
2023-11-15T17:56:02.191Z,10.20
2023-11-15T17:58:28.795Z,10.20
2023-11-15T18:00:55.597Z,10.20
2023-11-15T18:03:22.835Z,10.30
2023-11-15T18:05:49.579Z,10.20
2023-11-15T18:08:19.705Z,10.30
2023-11-15T18:10:46.389Z,10.20
2023-11-15T18:13:13.194Z,10.20
2023-11-15T18:15:39.928Z,10.30
2023-11-15T18:18:07.056Z,10.30
2023-11-15T18:20:34.658Z,10.30
2023-11-15T18:23:02.262Z,10.30
2023-11-15T18:25:28.914Z,10.30
2023-11-15T18:27:55.954Z,10.30
2023-11-15T18:30:23.499Z,10.20
2023-11-15T18:32:52.193Z,10.30
2023-11-15T18:35:19.840Z,10.30
2023-11-15T18:37:46.593Z,10.30
2023-11-15T18:40:13.777Z,10.20
2023-11-15T18:42:40.898Z,10.20
2023-11-15T18:45:12.336Z,10.20
2023-11-15T18:47:44.791Z,10.20
2023-11-15T18:50:13.086Z,10.20
2023-11-15T18:52:42.075Z,10.20
2023-11-15T18:55:13.687Z,10.20
2023-11-15T18:57:42.497Z,10.20
2023-11-15T19:00:14.689Z,10.20
2023-11-15T19:02:44.690Z,10.20
2023-11-15T19:05:17.085Z,10.20
2023-11-15T19:07:44.416Z,10.20
2023-11-15T19:10:17.832Z,10.20
2023-11-15T19:12:49.557Z,10.20
2023-11-15T19:15:16.906Z,10.20
2023-11-15T19:17:51.275Z,10.30
2023-11-15T19:20:20.137Z,10.20
2023-11-15T19:22:47.898Z,10.30
2023-11-15T19:25:16.056Z,10.20
2023-11-15T19:27:43.430Z,10.30
2023-11-15T19:30:10.626Z,10.20
2023-11-15T19:32:38.568Z,10.20
2023-11-15T19:35:09.450Z,10.30
2023-11-15T19:37:37.119Z,10.20
2023-11-15T19:40:09.516Z,10.20
2023-11-15T19:42:37.670Z,10.30
2023-11-15T19:45:05.482Z,10.30
2023-11-15T19:47:32.197Z,10.20
2023-11-15T19:49:59.713Z,10.20
2023-11-15T19:52:26.596Z,10.20
2023-11-15T19:55:00.203Z,10.20
2023-11-15T19:57:29.659Z,10.20
2023-11-15T19:59:58.195Z,10.20
2023-11-15T20:02:31.504Z,10.20
2023-11-15T20:05:05.280Z,10.20
2023-11-15T20:07:32.347Z,10.30
2023-11-15T20:09:59.450Z,10.20
2023-11-15T20:12:27.898Z,10.20
2023-11-15T20:14:54.660Z,10.10
2023-11-15T20:17:21.351Z,10.20
2023-11-15T20:19:47.919Z,10.10
2023-11-15T20:22:14.468Z,10.10
2023-11-15T20:24:41.128Z,10.10
2023-11-15T20:27:08.835Z,10.10
2023-11-15T20:29:36.846Z,10.10
2023-11-15T20:32:03.600Z,10.20
2023-11-15T20:34:30.193Z,10.20
2023-11-15T20:36:56.943Z,10.20
2023-11-15T20:39:25.684Z,10.20
2023-11-15T20:41:54.115Z,10.20
2023-11-15T20:44:20.836Z,10.20
2023-11-15T20:46:47.798Z,10.20
2023-11-15T20:49:14.619Z,10.20
2023-11-15T20:51:53.162Z,10.20
2023-11-15T20:54:25.636Z,10.20
2023-11-15T20:56:52.382Z,10.10
2023-11-15T20:59:18.996Z,10.10
2023-11-15T21:01:47.928Z,10.10
2023-11-15T21:04:20.792Z,10.10
2023-11-15T21:06:49.565Z,10.10
2023-11-15T21:09:16.529Z,10.20
2023-11-15T21:11:44.483Z,10.10
2023-11-15T21:14:11.152Z,10.20
2023-11-15T21:16:38.393Z,10.20
2023-11-15T21:19:05.440Z,10.30
2023-11-15T21:21:32.549Z,10.20
2023-11-15T21:23:59.434Z,10.20
2023-11-15T21:26:26.217Z,10.10
2023-11-15T21:28:54.752Z,10.10
2023-11-15T21:31:22.476Z,10.10
2023-11-15T21:33:49.631Z,10.10
2023-11-15T21:36:18.048Z,10.10
2023-11-15T21:38:45.466Z,10.10
2023-11-15T21:41:12.068Z,10.00
2023-11-15T21:43:39.051Z,10.10
2023-11-15T21:46:05.922Z,10.20
2023-11-15T21:48:34.091Z,10.10
2023-11-15T21:51:00.768Z,10.10
2023-11-15T21:53:29.365Z,10.10
2023-11-15T21:55:59.536Z,10.10
2023-11-15T21:58:26.122Z,10.10
2023-11-15T22:00:52.720Z,10.10
2023-11-15T22:03:19.381Z,10.10
2023-11-15T22:05:46.072Z,10.10
2023-11-15T22:08:12.694Z,10.10
2023-11-15T22:10:39.298Z,10.10
2023-11-15T22:13:07.303Z,10.00
2023-11-15T22:15:34.075Z,10.10
2023-11-15T22:18:01.010Z,10.10
2023-11-15T22:20:27.737Z,10.10
2023-11-15T22:22:55.759Z,10.20
2023-11-15T22:25:22.342Z,10.20
2023-11-15T22:27:49.024Z,10.20
2023-11-15T22:30:15.955Z,10.10
2023-11-15T22:32:42.657Z,10.10
2023-11-15T22:35:10.861Z,10.10
2023-11-15T22:37:37.654Z,10.10
2023-11-15T22:40:04.670Z,10.00
2023-11-15T22:42:31.394Z,10.10
2023-11-15T22:44:58.066Z,10.10
2023-11-15T22:47:24.806Z,10.10
2023-11-15T22:49:53.317Z,10.20
2023-11-15T22:52:19.975Z,10.20
2023-11-15T22:54:46.585Z,10.10
2023-11-15T22:57:13.259Z,10.10
2023-11-15T22:59:40.622Z,10.10
2023-11-15T23:02:07.573Z,10.00
2023-11-15T23:04:34.474Z,10.00
2023-11-15T23:07:02.088Z,10.00
2023-11-15T23:09:28.898Z,10.10
2023-11-15T23:11:55.545Z,10.10
2023-11-15T23:14:22.215Z,10.10
2023-11-15T23:16:48.787Z,10.00
2023-11-15T23:19:16.497Z,10.10
2023-11-15T23:21:51.135Z,10.10
2023-11-15T23:24:27.342Z,10.10
2023-11-15T23:26:54.156Z,10.00
2023-11-15T23:29:22.868Z,10.00
2023-11-15T23:31:50.779Z,10.00
2023-11-15T23:34:19.246Z,10.00
2023-11-15T23:36:45.926Z,9.90
2023-11-15T23:39:13.592Z,9.90
2023-11-15T23:41:40.197Z,9.80
2023-11-15T23:44:08.500Z,9.80
2023-11-15T23:46:35.285Z,9.80
2023-11-15T23:49:01.929Z,9.80
2023-11-15T23:51:28.581Z,9.90
2023-11-15T23:53:55.292Z,9.90
2023-11-15T23:56:21.898Z,9.90
2023-11-15T23:58:48.609Z,9.90
